Time;durP1;ratioP1;P1;durP2;ratioP2;P2;SDS_P1;SDS_P2;PMS_P1;PMS_P2;Temp;Humidity;BMP_temperature;BMP_pressure;BME280_temperature;BME280_humidity;BME280_pressure;Samples;Min_cycle;Max_cycle;Signal;HPM_P1;HPM_P2
2023/07/03 00:02:24;;;;;;;13.43;3.47;;;17.50;58.70;;;;;;5108026;28;20470;-65
2023/07/03 00:04:51;;;;;;;14.23;4.20;;;17.40;58.60;;;;;;5106382;28;20474;-66
2023/07/03 00:07:18;;;;;;;11.40;4.27;;;17.40;58.70;;;;;;5105831;28;20435;-66
2023/07/03 00:09:46;;;;;;;12.47;3.80;;;17.40;58.80;;;;;;5104684;28;20444;-65
2023/07/03 00:12:13;;;;;;;11.73;3.83;;;17.30;58.90;;;;;;5105394;28;21041;-65
2023/07/03 00:14:40;;;;;;;10.47;3.40;;;17.30;59.20;;;;;;5104443;28;20459;-65
2023/07/03 00:17:08;;;;;;;10.73;3.50;;;17.20;59.10;;;;;;5103521;28;20450;-65
2023/07/03 00:19:35;;;;;;;14.20;4.17;;;17.20;59.10;;;;;;5103744;28;20483;-65
2023/07/03 00:22:02;;;;;;;14.37;5.23;;;17.10;59.10;;;;;;5101551;28;20884;-65
2023/07/03 00:24:31;;;;;;;10.90;3.47;;;17.10;59.60;;;;;;5103093;28;20473;-65
2023/07/03 00:27:00;;;;;;;9.60;3.33;;;17.00;59.70;;;;;;5102747;28;20452;-65
2023/07/03 00:29:30;;;;;;;18.40;4.03;;;17.00;60.40;;;;;;5102994;28;20443;-65
2023/07/03 00:31:57;;;;;;;8.73;3.53;;;16.90;59.80;;;;;;5102440;28;20471;-65
2023/07/03 00:34:24;;;;;;;11.63;4.20;;;16.80;60.50;;;;;;5102100;28;21014;-65
2023/07/03 00:36:51;;;;;;;18.03;4.93;;;16.80;61.20;;;;;;5102042;28;20456;-65
2023/07/03 00:39:18;;;;;;;14.73;4.27;;;16.80;61.40;;;;;;5100711;28;20999;-65
2023/07/03 00:41:45;;;;;;;14.50;3.73;;;16.80;61.20;;;;;;5101723;28;20816;-65
2023/07/03 00:44:15;;;;;;;12.03;3.40;;;16.80;61.20;;;;;;5100854;28;20448;-65
2023/07/03 00:46:44;;;;;;;15.07;4.20;;;16.80;61.70;;;;;;5102496;28;20432;-65
2023/07/03 00:49:12;;;;;;;13.80;4.63;;;16.80;61.60;;;;;;5101807;28;20501;-65
2023/07/03 00:51:41;;;;;;;12.20;4.20;;;16.80;61.70;;;;;;5101748;28;20443;-64
2023/07/03 00:54:08;;;;;;;12.60;4.97;;;16.80;62.20;;;;;;5101434;28;20945;-65
2023/07/03 00:56:35;;;;;;;10.70;3.80;;;16.80;62.20;;;;;;5101579;28;20444;-65
2023/07/03 00:59:03;;;;;;;23.13;4.07;;;16.80;62.40;;;;;;5100199;28;20570;-65
2023/07/03 01:01:38;;;;;;;14.00;4.27;;;16.80;62.50;;;;;;5100947;28;20458;-65
2023/07/03 01:04:12;;;;;;;14.80;4.10;;;16.80;62.90;;;;;;5100516;28;20481;-65
2023/07/03 01:06:44;;;;;;;11.27;3.73;;;16.80;63.40;;;;;;5101325;28;20436;-65
2023/07/03 01:09:14;;;;;;;10.67;4.50;;;16.70;63.10;;;;;;5100592;28;20800;-65
2023/07/03 01:11:45;;;;;;;12.60;3.80;;;16.60;63.80;;;;;;5098858;28;20443;-65
2023/07/03 01:14:14;;;;;;;14.60;4.10;;;16.60;63.90;;;;;;5099895;28;20458;-65
2023/07/03 01:16:44;;;;;;;10.27;3.40;;;16.60;64.60;;;;;;5099941;28;20448;-65
2023/07/03 01:19:15;;;;;;;13.03;4.10;;;16.50;64.60;;;;;;5099057;28;20471;-65
2023/07/03 01:21:50;;;;;;;10.97;3.73;;;16.50;65.10;;;;;;5099887;28;20428;-65
2023/07/03 01:24:33;;;;;;;12.60;3.90;;;16.50;65.30;;;;;;5100524;28;20428;-65
2023/07/03 01:27:03;;;;;;;11.33;3.93;;;16.40;66.70;;;;;;5098417;28;20475;-65
2023/07/03 01:29:34;;;;;;;12.90;4.80;;;16.40;66.30;;;;;;5100777;28;20784;-65
2023/07/03 01:32:02;;;;;;;11.53;4.07;;;16.30;66.90;;;;;;5100482;28;20989;-65
2023/07/03 01:34:29;;;;;;;13.30;3.67;;;16.30;67.50;;;;;;5100377;28;20451;-65
2023/07/03 01:36:58;;;;;;;14.10;4.40;;;16.20;68.00;;;;;;5099464;28;20450;-65
2023/07/03 01:39:27;;;;;;;13.63;3.83;;;16.20;68.40;;;;;;5099675;28;20485;-65
2023/07/03 01:41:57;;;;;;;15.00;4.23;;;16.30;69.00;;;;;;5100165;28;20456;-65
2023/07/03 01:44:24;;;;;;;16.07;4.23;;;16.20;69.50;;;;;;5098705;28;20456;-65
2023/07/03 01:46:51;;;;;;;15.87;4.20;;;16.30;69.80;;;;;;5099529;28;20960;-65
2023/07/03 01:49:18;;;;;;;14.20;5.33;;;16.30;70.00;;;;;;5099257;28;20470;-65
2023/07/03 01:51:53;;;;;;;15.30;4.00;;;16.30;69.80;;;;;;5100211;28;20440;-65
2023/07/03 01:54:30;;;;;;;15.50;4.53;;;16.30;70.50;;;;;;5103599;28;20440;-66
2023/07/03 01:57:00;;;;;;;19.30;4.97;;;16.30;70.70;;;;;;5102806;28;20442;-66
2023/07/03 01:59:29;;;;;;;17.67;5.30;;;16.30;71.00;;;;;;5102231;28;20491;-66
2023/07/03 02:02:00;;;;;;;15.17;4.73;;;16.30;71.30;;;;;;5102316;28;20459;-65
2023/07/03 02:04:31;;;;;;;19.93;5.07;;;16.40;71.50;;;;;;5099846;28;20420;-66
2023/07/03 02:06:59;;;;;;;11.57;3.63;;;16.40;71.00;;;;;;5098532;28;20428;-66
2023/07/03 02:09:28;;;;;;;18.73;4.63;;;16.30;71.40;;;;;;5096936;28;20436;-66
2023/07/03 02:11:56;;;;;;;23.23;5.00;;;16.30;71.90;;;;;;5098285;28;20448;-65
2023/07/03 02:14:24;;;;;;;14.33;3.60;;;16.30;72.30;;;;;;5097097;28;20448;-66
2023/07/03 02:16:52;;;;;;;13.63;3.97;;;16.30;72.10;;;;;;5096204;28;20819;-66
2023/07/03 02:19:28;;;;;;;18.63;4.07;;;16.30;72.50;;;;;;5097864;28;20523;-66
2023/07/03 02:21:55;;;;;;;15.70;5.13;;;16.30;73.00;;;;;;5097933;28;20439;-65
2023/07/03 02:24:22;;;;;;;15.37;4.00;;;16.30;73.10;;;;;;5096878;28;20443;-65
2023/07/03 02:26:51;;;;;;;16.20;4.10;;;16.20;73.10;;;;;;5097490;28;20486;-66
2023/07/03 02:29:19;;;;;;;15.63;4.97;;;16.10;73.30;;;;;;5098144;28;20534;-66
2023/07/03 02:31:45;;;;;;;16.43;4.50;;;16.20;74.50;;;;;;5097879;28;20444;-65
2023/07/03 02:34:12;;;;;;;15.63;3.60;;;16.10;74.30;;;;;;5097805;28;20573;-66
2023/07/03 02:36:40;;;;;;;13.87;4.00;;;16.10;74.80;;;;;;5096159;28;20447;-66
2023/07/03 02:39:09;;;;;;;12.50;4.30;;;16.20;75.20;;;;;;5097319;28;20537;-65
2023/07/03 02:41:36;;;;;;;19.80;4.57;;;16.20;75.00;;;;;;5097741;28;20794;-66
2023/07/03 02:44:04;;;;;;;21.57;5.67;;;16.20;74.70;;;;;;5097460;28;20455;-66
2023/07/03 02:46:31;;;;;;;14.30;4.80;;;16.30;75.20;;;;;;5097779;28;20448;-66
2023/07/03 02:48:58;;;;;;;13.77;4.47;;;16.30;75.10;;;;;;5096168;28;21013;-65
2023/07/03 02:51:25;;;;;;;12.17;4.47;;;16.40;75.20;;;;;;5097617;28;20444;-66
2023/07/03 02:53:51;;;;;;;17.63;4.27;;;16.40;75.10;;;;;;5095791;28;20479;-66
2023/07/03 02:56:18;;;;;;;18.23;4.07;;;16.40;75.40;;;;;;5097854;28;20803;-66
2023/07/03 02:58:45;;;;;;;13.40;3.83;;;16.40;75.20;;;;;;5096740;28;20480;-66
2023/07/03 03:01:14;;;;;;;15.47;4.20;;;16.40;75.80;;;;;;5097249;28;20908;-66
2023/07/03 03:03:41;;;;;;;14.77;5.33;;;16.40;75.90;;;;;;5097052;28;20558;-65
2023/07/03 03:06:08;;;;;;;23.93;4.40;;;16.50;76.20;;;;;;5097883;28;20475;-66
2023/07/03 03:08:35;;;;;;;12.77;4.27;;;16.50;76.30;;;;;;5097370;28;21056;-66
2023/07/03 03:11:04;;;;;;;14.33;3.60;;;16.40;77.00;;;;;;5096785;28;20454;-65
2023/07/03 03:13:30;;;;;;;13.47;4.50;;;16.40;77.20;;;;;;5096542;28;20559;-65
2023/07/03 03:15:58;;;;;;;17.43;5.10;;;16.40;77.70;;;;;;5097076;28;20439;-66
2023/07/03 03:18:26;;;;;;;15.87;4.77;;;16.40;78.00;;;;;;5096254;28;20864;-66
2023/07/03 03:20:53;;;;;;;14.73;5.00;;;16.40;78.20;;;;;;5096501;28;20488;-65
2023/07/03 03:23:20;;;;;;;11.73;4.00;;;16.40;78.40;;;;;;5097269;28;20468;-65
2023/07/03 03:25:47;;;;;;;16.60;4.40;;;16.40;78.90;;;;;;5096186;28;20450;-66
2023/07/03 03:28:14;;;;;;;17.97;4.57;;;16.40;79.00;;;;;;5100320;28;20467;-66
2023/07/03 03:30:40;;;;;;;21.10;5.47;;;16.40;79.40;;;;;;5101403;28;20455;-66
2023/07/03 03:33:07;;;;;;;26.77;4.33;;;16.40;79.60;;;;;;5101331;28;20463;-65
2023/07/03 03:35:35;;;;;;;26.00;4.87;;;16.40;80.20;;;;;;5101884;28;20456;-65
2023/07/03 03:38:02;;;;;;;26.30;5.20;;;16.50;80.20;;;;;;5104828;28;20458;-66
2023/07/03 03:40:29;;;;;;;12.73;4.50;;;16.50;80.30;;;;;;5101203;28;20458;-66
2023/07/03 03:42:56;;;;;;;20.57;6.03;;;16.50;80.40;;;;;;5101103;28;20460;-65
2023/07/03 03:45:22;;;;;;;21.80;4.87;;;16.50;80.90;;;;;;5100602;28;20501;-66
2023/07/03 03:47:51;;;;;;;21.80;5.17;;;16.50;81.10;;;;;;5099958;28;20929;-66
2023/07/03 03:50:18;;;;;;;19.20;4.93;;;16.50;81.10;;;;;;5100300;28;20458;-66
2023/07/03 03:52:46;;;;;;;23.70;5.40;;;16.40;81.30;;;;;;5099954;28;20992;-65
2023/07/03 03:55:13;;;;;;;20.03;5.40;;;16.50;81.90;;;;;;5100150;28;20452;-66
2023/07/03 03:57:40;;;;;;;18.03;6.10;;;16.40;82.10;;;;;;5100278;28;20488;-66
2023/07/03 04:00:15;;;;;;;15.80;4.90;;;16.40;82.70;;;;;;5099959;28;20476;-66
2023/07/03 04:02:42;;;;;;;18.53;5.23;;;16.40;82.90;;;;;;5102827;28;20497;-65
2023/07/03 04:05:09;;;;;;;20.63;5.23;;;16.40;83.40;;;;;;5099246;28;20448;-66
2023/07/03 04:07:36;;;;;;;17.13;5.07;;;16.40;83.90;;;;;;5099893;28;20501;-66
2023/07/03 04:10:06;;;;;;;20.90;5.43;;;16.40;84.00;;;;;;5100409;28;20951;-66
2023/07/03 04:12:32;;;;;;;16.97;5.03;;;16.40;84.10;;;;;;5099977;28;20478;-65
2023/07/03 04:14:59;;;;;;;14.33;3.90;;;16.40;84.60;;;;;;5100560;28;20451;-66
2023/07/03 04:17:26;;;;;;;15.50;4.63;;;16.40;84.90;;;;;;5100910;28;20443;-66
2023/07/03 04:19:54;;;;;;;19.10;5.20;;;16.50;84.80;;;;;;5100701;28;20491;-72
2023/07/03 04:22:20;;;;;;;19.77;5.00;;;16.50;85.20;;;;;;5100769;28;20996;-67
2023/07/03 04:24:47;;;;;;;24.00;6.03;;;16.60;84.80;;;;;;5101755;28;20967;-70
2023/07/03 04:27:15;;;;;;;18.87;4.93;;;16.60;85.20;;;;;;5101468;28;20455;-66
2023/07/03 04:29:42;;;;;;;17.97;4.90;;;16.70;85.10;;;;;;5100683;28;20439;-67
2023/07/03 04:32:09;;;;;;;18.60;5.00;;;16.70;85.20;;;;;;5100162;28;20467;-67
2023/07/03 04:34:36;;;;;;;23.40;5.80;;;16.80;85.60;;;;;;5100430;28;20448;-67
2023/07/03 04:37:04;;;;;;;15.33;5.07;;;16.80;85.40;;;;;;5100444;28;20470;-67
2023/07/03 04:39:31;;;;;;;17.97;6.07;;;16.90;84.80;;;;;;5099083;28;20479;-67
2023/07/03 04:42:00;;;;;;;17.83;6.03;;;17.00;84.90;;;;;;5100102;28;20475;-67
2023/07/03 04:44:28;;;;;;;20.20;5.47;;;17.00;84.70;;;;;;5101150;28;20487;-67
2023/07/03 04:46:56;;;;;;;27.33;5.47;;;16.90;85.00;;;;;;5103543;28;20444;-67
2023/07/03 04:49:26;;;;;;;24.60;5.60;;;16.90;85.10;;;;;;5103050;28;20448;-67
2023/07/03 04:51:54;;;;;;;30.40;6.80;;;17.00;85.20;;;;;;5101788;28;20501;-67
2023/07/03 04:54:22;;;;;;;22.27;5.70;;;17.00;85.00;;;;;;5101182;28;20953;-67
2023/07/03 04:56:49;;;;;;;19.87;6.23;;;17.10;85.30;;;;;;5100141;28;20447;-67
2023/07/03 04:59:16;;;;;;;14.70;5.40;;;17.10;85.40;;;;;;5099931;28;20479;-67
2023/07/03 05:01:44;;;;;;;16.37;4.93;;;17.10;84.90;;;;;;5100735;28;20473;-66
2023/07/03 05:04:11;;;;;;;23.97;6.00;;;17.10;85.10;;;;;;5099742;28;20467;-67
2023/07/03 05:06:39;;;;;;;23.97;5.80;;;17.10;85.00;;;;;;5100026;28;20444;-67
2023/07/03 05:09:08;;;;;;;12.17;5.03;;;17.00;85.10;;;;;;5100459;28;20475;-67
2023/07/03 05:11:35;;;;;;;16.10;5.13;;;17.00;85.70;;;;;;5099368;28;20447;-67
2023/07/03 05:14:03;;;;;;;15.27;4.50;;;17.00;85.80;;;;;;5099830;28;20448;-67
2023/07/03 05:16:30;;;;;;;15.70;5.50;;;17.00;86.60;;;;;;5099658;28;20968;-67
2023/07/03 05:18:58;;;;;;;16.20;4.80;;;17.10;87.10;;;;;;5099684;28;21038;-67
2023/07/03 05:21:25;;;;;;;21.43;5.23;;;17.20;87.10;;;;;;5099649;28;20832;-67
2023/07/03 05:23:52;;;;;;;14.37;4.93;;;17.10;85.80;;;;;;5098317;28;20520;-67
2023/07/03 05:26:19;;;;;;;24.57;6.47;;;17.10;85.70;;;;;;5099801;28;20948;-67
2023/07/03 05:28:47;;;;;;;20.53;5.70;;;17.20;86.00;;;;;;5098331;28;20513;-67
2023/07/03 05:31:13;;;;;;;18.27;5.23;;;17.30;86.30;;;;;;5099684;28;20526;-67
2023/07/03 05:33:40;;;;;;;16.73;6.13;;;17.30;86.20;;;;;;5097820;28;20471;-68
2023/07/03 05:36:08;;;;;;;13.67;6.00;;;17.30;85.70;;;;;;5094100;28;20447;-68
2023/07/03 05:38:35;;;;;;;19.47;5.73;;;17.30;85.40;;;;;;5095356;28;20448;-68
2023/07/03 05:41:02;;;;;;;16.03;5.53;;;17.40;86.20;;;;;;5094959;28;21011;-67
2023/07/03 05:43:29;;;;;;;19.33;5.00;;;17.40;85.70;;;;;;5095365;28;20470;-68
2023/07/03 05:45:56;;;;;;;16.43;5.17;;;17.30;85.20;;;;;;5096080;28;20470;-68
2023/07/03 05:48:24;;;;;;;23.03;6.20;;;17.30;86.10;;;;;;5095717;28;20448;-68
2023/07/03 05:50:51;;;;;;;12.87;5.43;;;17.20;85.50;;;;;;5095304;28;20444;-68
2023/07/03 05:53:19;;;;;;;23.70;5.80;;;17.30;86.60;;;;;;5094097;28;20471;-67
2023/07/03 05:55:54;;;;;;;15.20;5.43;;;17.30;87.30;;;;;;5095048;28;20451;-68
2023/07/03 05:58:22;;;;;;;15.73;5.23;;;17.40;85.60;;;;;;5094990;28;20823;-68
2023/07/03 06:00:49;;;;;;;14.93;5.30;;;17.40;85.70;;;;;;5094875;28;20574;-68
2023/07/03 06:03:16;;;;;;;20.03;5.80;;;17.60;85.50;;;;;;5094930;28;20475;-68
2023/07/03 06:05:43;;;;;;;20.13;5.30;;;17.60;84.80;;;;;;5094882;28;20467;-68
2023/07/03 06:08:10;;;;;;;18.70;5.70;;;17.70;84.40;;;;;;5094476;28;20447;-68
2023/07/03 06:10:39;;;;;;;14.10;4.50;;;17.60;84.20;;;;;;5094329;28;20497;-67
2023/07/03 06:13:06;;;;;;;16.50;5.93;;;17.60;85.50;;;;;;5094558;28;20463;-67
2023/07/03 06:15:34;;;;;;;18.73;5.93;;;17.70;84.60;;;;;;5094718;28;20486;-68
2023/07/03 06:18:02;;;;;;;26.23;6.07;;;17.70;84.40;;;;;;5096561;28;20871;-67
2023/07/03 06:20:29;;;;;;;20.63;5.83;;;17.70;84.30;;;;;;5097241;28;20502;-67
2023/07/03 06:22:56;;;;;;;14.40;5.60;;;17.80;85.20;;;;;;5096774;28;20464;-67
2023/07/03 06:25:22;;;;;;;14.17;5.37;;;17.90;83.70;;;;;;5096104;28;20451;-67
2023/07/03 06:27:51;;;;;;;19.90;6.57;;;17.90;84.00;;;;;;5095423;28;20450;-67
2023/07/03 06:30:18;;;;;;;19.63;6.23;;;18.00;84.10;;;;;;5094978;28;20436;-67
2023/07/03 06:32:44;;;;;;;19.27;5.80;;;18.10;84.00;;;;;;5094252;28;20976;-67
2023/07/03 06:35:11;;;;;;;15.00;5.70;;;18.20;84.00;;;;;;5094283;28;20455;-67
2023/07/03 06:37:38;;;;;;;17.43;5.80;;;18.30;83.10;;;;;;5094530;28;20451;-67
2023/07/03 06:40:09;;;;;;;15.67;5.87;;;18.30;83.30;;;;;;5094032;28;20573;-67
2023/07/03 06:42:36;;;;;;;18.67;5.67;;;18.30;83.20;;;;;;5094511;28;20520;-67
2023/07/03 06:45:05;;;;;;;22.27;5.43;;;18.40;83.30;;;;;;5094138;28;20959;-67
2023/07/03 06:47:31;;;;;;;18.77;6.07;;;18.40;82.40;;;;;;5094382;28;20443;-67
2023/07/03 06:49:58;;;;;;;20.83;5.80;;;18.40;83.00;;;;;;5094107;28;20447;-67
2023/07/03 06:52:25;;;;;;;21.80;6.77;;;18.40;82.50;;;;;;5094182;28;20467;-67
2023/07/03 06:54:52;;;;;;;21.47;5.07;;;18.40;82.90;;;;;;5093984;28;20451;-67
2023/07/03 06:57:18;;;;;;;22.43;5.53;;;18.50;83.50;;;;;;5093873;28;20963;-67
2023/07/03 06:59:45;;;;;;;17.00;5.10;;;18.40;82.00;;;;;;5094025;28;20483;-67
2023/07/03 07:02:14;;;;;;;16.27;5.73;;;18.30;81.90;;;;;;5093662;28;20468;-66
2023/07/03 07:04:42;;;;;;;13.30;5.10;;;18.30;81.70;;;;;;5094000;28;20448;-67
2023/07/03 07:07:09;;;;;;;14.37;4.97;;;18.30;82.80;;;;;;5094303;28;20447;-67
2023/07/03 07:09:36;;;;;;;17.80;5.23;;;18.30;82.30;;;;;;5092527;28;20444;-67
2023/07/03 07:12:03;;;;;;;20.77;6.90;;;18.40;82.60;;;;;;5094563;28;20479;-67
2023/07/03 07:14:30;;;;;;;19.93;5.73;;;18.50;81.90;;;;;;5094467;28;20455;-67
2023/07/03 07:16:58;;;;;;;23.10;6.57;;;18.70;82.40;;;;;;5095323;28;20451;-67
2023/07/03 07:19:26;;;;;;;14.27;5.40;;;18.90;81.00;;;;;;5094490;28;20495;-68
2023/07/03 07:21:53;;;;;;;19.10;4.87;;;19.00;79.70;;;;;;5096296;28;20451;-66
2023/07/03 07:24:23;;;;;;;21.13;5.60;;;19.00;77.40;;;;;;5098244;28;20909;-67
2023/07/03 07:26:54;;;;;;;19.13;5.47;;;19.10;75.70;;;;;;5099457;28;20788;-67
2023/07/03 07:29:21;;;;;;;13.43;5.50;;;19.10;75.90;;;;;;5097392;28;20438;-67
2023/07/03 07:31:48;;;;;;;14.63;5.53;;;19.20;73.90;;;;;;5094951;28;20458;-67
2023/07/03 07:34:15;;;;;;;20.43;7.50;;;19.20;73.70;;;;;;5098033;28;20447;-67
2023/07/03 07:36:44;;;;;;;17.80;5.70;;;19.20;74.10;;;;;;5097714;28;20444;-68
2023/07/03 07:39:11;;;;;;;21.00;5.90;;;19.40;75.00;;;;;;5096990;28;20456;-66
2023/07/03 07:41:38;;;;;;;16.13;5.37;;;19.60;72.10;;;;;;5096507;28;20847;-67
2023/07/03 07:44:06;;;;;;;28.60;5.50;;;19.60;70.60;;;;;;5096831;28;20451;-65
2023/07/03 07:46:35;;;;;;;15.00;4.80;;;19.60;69.20;;;;;;5099502;28;20457;-65
2023/07/03 07:49:02;;;;;;;15.53;4.90;;;19.60;68.30;;;;;;5099377;28;20447;-66
2023/07/03 07:51:29;;;;;;;12.87;4.30;;;19.70;68.30;;;;;;5098430;28;20467;-66
2023/07/03 07:53:58;;;;;;;13.60;4.23;;;19.90;66.70;;;;;;5098547;28;20471;-66
2023/07/03 07:56:26;;;;;;;10.73;3.57;;;20.00;64.60;;;;;;5098110;28;20443;-66
2023/07/03 07:58:54;;;;;;;12.73;4.60;;;20.10;63.40;;;;;;5098718;28;20975;-66
2023/07/03 08:01:21;;;;;;;8.60;4.47;;;20.20;64.60;;;;;;5098223;28;20511;-66
2023/07/03 08:03:48;;;;;;;12.93;4.80;;;20.40;66.30;;;;;;5098190;28;20478;-65
2023/07/03 08:06:16;;;;;;;15.73;4.57;;;20.50;63.80;;;;;;5097669;28;20809;-66
2023/07/03 08:08:44;;;;;;;12.73;4.50;;;20.70;60.00;;;;;;5098522;28;20443;-66
2023/07/03 08:11:13;;;;;;;12.20;4.27;;;20.80;59.40;;;;;;5097611;28;20534;-66
2023/07/03 08:13:41;;;;;;;11.50;3.93;;;20.80;59.30;;;;;;5097226;28;20865;-66
2023/07/03 08:16:09;;;;;;;8.10;3.90;;;20.90;58.30;;;;;;5102305;28;20459;-66
2023/07/03 08:18:36;;;;;;;9.80;4.07;;;21.00;58.20;;;;;;5101802;28;20482;-66
2023/07/03 08:21:03;;;;;;;15.80;4.33;;;21.10;58.20;;;;;;5101860;28;20491;-65
2023/07/03 08:23:31;;;;;;;7.90;3.23;;;21.10;56.80;;;;;;5101471;28;20464;-66
2023/07/03 08:26:00;;;;;;;18.83;4.13;;;21.20;56.40;;;;;;5100992;28;20455;-66
2023/07/03 08:28:29;;;;;;;11.30;3.93;;;21.20;56.40;;;;;;5101559;28;20447;-66
2023/07/03 08:30:57;;;;;;;11.20;3.60;;;21.20;55.50;;;;;;5101612;28;20447;-65
2023/07/03 08:33:25;;;;;;;6.83;3.50;;;21.20;54.20;;;;;;5101353;28;20472;-66
2023/07/03 08:35:51;;;;;;;10.27;3.43;;;21.10;54.20;;;;;;5105739;28;20976;-67
2023/07/03 08:38:19;;;;;;;11.20;4.27;;;21.00;52.80;;;;;;5100650;28;20848;-67
2023/07/03 08:40:46;;;;;;;11.30;3.93;;;21.40;54.10;;;;;;5098825;28;20471;-68
2023/07/03 08:43:20;;;;;;;13.60;4.20;;;21.80;53.80;;;;;;5098050;28;20471;-67
2023/07/03 08:45:50;;;;;;;8.03;3.30;;;21.90;52.20;;;;;;5097263;28;20428;-67
2023/07/03 08:48:21;;;;;;;9.80;3.40;;;21.80;51.80;;;;;;5096243;28;20439;-67
2023/07/03 08:50:51;;;;;;;8.37;3.20;;;21.90;51.80;;;;;;5097034;28;20429;-67
2023/07/03 08:53:21;;;;;;;10.20;3.83;;;21.90;51.10;;;;;;5097248;28;20467;-69
2023/07/03 08:55:52;;;;;;;10.90;4.00;;;21.90;51.20;;;;;;5096725;28;20451;-68
2023/07/03 08:58:19;;;;;;;8.30;3.40;;;21.80;51.10;;;;;;5097010;28;20428;-68
2023/07/03 09:00:54;;;;;;;14.43;4.30;;;21.70;52.00;;;;;;5096556;28;20493;-67
2023/07/03 09:03:29;;;;;;;8.67;4.20;;;21.60;52.10;;;;;;5096830;28;20470;-66
2023/07/03 09:06:06;;;;;;;8.63;3.43;;;21.70;53.00;;;;;;5096645;28;20431;-66
2023/07/03 09:08:39;;;;;;;11.07;3.50;;;21.60;53.20;;;;;;5097318;28;20462;-66
2023/07/03 09:11:06;;;;;;;11.80;3.63;;;21.50;52.00;;;;;;5097461;28;20431;-66
2023/07/03 09:13:39;;;;;;;8.80;3.70;;;21.50;52.10;;;;;;5097023;28;20859;-67
2023/07/03 09:16:12;;;;;;;7.93;3.67;;;21.50;53.30;;;;;;5096092;28;20443;-66
2023/07/03 09:18:44;;;;;;;9.23;4.70;;;21.50;52.80;;;;;;5097251;28;20458;-68
2023/07/03 09:21:11;;;;;;;8.27;3.33;;;21.60;51.60;;;;;;5097468;28;20467;-66
2023/07/03 09:23:43;;;;;;;10.13;3.60;;;21.30;50.90;;;;;;5097026;28;20472;-66
2023/07/03 09:26:16;;;;;;;8.87;4.03;;;21.30;52.30;;;;;;5095867;28;20809;-66
2023/07/03 09:28:44;;;;;;;7.63;3.20;;;21.10;52.00;;;;;;5095799;28;20459;-66
2023/07/03 09:31:12;;;;;;;8.43;3.40;;;21.30;52.70;;;;;;5093974;28;20439;-66
2023/07/03 09:33:39;;;;;;;7.73;3.50;;;21.20;51.50;;;;;;5095600;28;20463;-66
2023/07/03 09:36:25;;;;;;;7.10;3.10;;;21.30;51.50;;;;;;5095719;28;20463;-66
2023/07/03 09:38:52;;;;;;;8.93;3.10;;;21.50;50.50;;;;;;5095497;28;20966;-66
2023/07/03 09:41:29;;;;;;;8.07;3.20;;;21.40;48.70;;;;;;5095144;28;20495;-66
2023/07/03 09:43:56;;;;;;;11.13;4.10;;;21.60;51.70;;;;;;5095602;28;20460;-66
2023/07/03 09:46:24;;;;;;;9.83;2.67;;;21.70;50.90;;;;;;5095250;28;20856;-67
2023/07/03 09:48:52;;;;;;;9.33;2.93;;;21.70;49.20;;;;;;5094733;28;20451;-66
2023/07/03 09:51:25;;;;;;;5.40;2.57;;;21.80;49.80;;;;;;5095151;28;20451;-67
2023/07/03 09:53:52;;;;;;;13.13;3.67;;;21.70;48.00;;;;;;5095167;28;20464;-66
2023/07/03 09:56:22;;;;;;;7.07;3.00;;;21.50;48.10;;;;;;5095292;28;20439;-66
2023/07/03 09:58:52;;;;;;;8.27;2.97;;;21.30;48.80;;;;;;5095203;28;20535;-66
2023/07/03 10:01:23;;;;;;;8.70;3.47;;;21.10;49.60;;;;;;5095133;28;20511;-66
2023/07/03 10:04:02;;;;;;;7.37;4.00;;;20.80;51.40;;;;;;5093966;28;20981;-66
2023/07/03 10:06:29;;;;;;;9.60;3.60;;;20.50;52.80;;;;;;5095280;28;20439;-66
2023/07/03 10:09:01;;;;;;;14.33;4.00;;;20.20;54.50;;;;;;5094862;28;20450;-67
2023/07/03 10:11:33;;;;;;;13.97;3.77;;;19.90;54.70;;;;;;5095080;28;20430;-66
2023/07/03 10:14:00;;;;;;;12.27;4.00;;;19.70;56.50;;;;;;5094856;28;20478;-66
2023/07/03 10:16:28;;;;;;;11.30;3.80;;;19.60;56.90;;;;;;5094891;28;20444;-66
2023/07/03 10:18:59;;;;;;;8.60;3.90;;;19.70;59.10;;;;;;5094547;28;20467;-67
2023/07/03 10:21:26;;;;;;;6.70;3.50;;;19.90;57.30;;;;;;5093796;28;20484;-66
2023/07/03 10:23:54;;;;;;;7.00;3.10;;;19.90;55.70;;;;;;5094596;28;20476;-66
2023/07/03 10:26:24;;;;;;;11.60;3.23;;;20.10;54.90;;;;;;5094650;28;20900;-67
2023/07/03 10:28:58;;;;;;;9.53;3.50;;;20.20;55.00;;;;;;5094507;28;20578;-67
2023/07/03 10:31:30;;;;;;;8.70;3.13;;;20.50;55.50;;;;;;5094779;28;20429;-66
2023/07/03 10:34:06;;;;;;;7.60;3.47;;;20.70;55.90;;;;;;5094572;28;20467;-67
2023/07/03 10:36:36;;;;;;;10.60;3.07;;;21.00;55.50;;;;;;5093666;28;20462;-67
2023/07/03 10:39:07;;;;;;;8.20;3.80;;;21.30;55.30;;;;;;5094947;28;20432;-67
2023/07/03 10:41:39;;;;;;;13.43;4.37;;;21.60;53.90;;;;;;5094184;28;20468;-66
2023/07/03 10:44:10;;;;;;;13.43;5.33;;;21.70;54.20;;;;;;5094180;28;20455;-67
2023/07/03 10:46:42;;;;;;;8.27;3.00;;;21.70;53.10;;;;;;5094300;28;20432;-67
2023/07/03 10:49:15;;;;;;;9.43;3.53;;;21.60;55.20;;;;;;5094108;28;20423;-67
2023/07/03 10:51:53;;;;;;;10.20;3.60;;;21.60;55.40;;;;;;5098066;28;20425;-67
2023/07/03 10:54:25;;;;;;;6.00;3.53;;;21.70;54.50;;;;;;5098208;28;20519;-66
2023/07/03 10:56:56;;;;;;;13.47;4.13;;;22.00;54.70;;;;;;5095376;28;20448;-66
2023/07/03 10:59:28;;;;;;;10.80;4.13;;;22.90;55.10;;;;;;5095234;28;20432;-67
2023/07/03 11:02:03;;;;;;;8.83;3.70;;;23.90;51.40;;;;;;5094483;28;20472;-67
2023/07/03 11:04:42;;;;;;;7.40;3.07;;;24.50;47.90;;;;;;5094912;28;20478;-66
2023/07/03 11:07:14;;;;;;;7.87;3.77;;;24.90;47.00;;;;;;5094274;28;20550;-67
2023/07/03 11:09:49;;;;;;;7.73;4.57;;;25.20;46.30;;;;;;5094308;28;20428;-67
2023/07/03 11:12:24;;;;;;;7.90;3.73;;;25.40;46.80;;;;;;5093881;28;20463;-67
2023/07/03 11:15:03;;;;;;;9.83;3.53;;;25.50;46.00;;;;;;5093671;28;20908;-67
2023/07/03 11:17:38;;;;;;;10.60;4.37;;;26.00;46.10;;;;;;5092968;28;20444;-67
2023/07/03 11:20:09;;;;;;;14.87;4.50;;;26.40;45.20;;;;;;5092869;28;20448;-67
2023/07/03 11:22:44;;;;;;;10.07;4.33;;;26.70;44.00;;;;;;5094281;28;20578;-67
2023/07/03 11:25:21;;;;;;;10.93;4.67;;;26.60;41.90;;;;;;5093983;28;20431;-67
2023/07/03 11:27:57;;;;;;;10.97;4.73;;;26.10;43.30;;;;;;5093128;28;20503;-67
2023/07/03 11:30:25;;;;;;;10.20;3.70;;;25.50;43.40;;;;;;5093674;28;20944;-67
2023/07/03 11:32:53;;;;;;;18.40;5.10;;;25.60;44.60;;;;;;5093984;28;20559;-67
2023/07/03 11:35:21;;;;;;;9.70;3.90;;;25.90;44.80;;;;;;5094176;28;20452;-68
2023/07/03 11:37:49;;;;;;;9.67;3.80;;;26.00;43.80;;;;;;5094246;28;20448;-67
2023/07/03 11:40:34;;;;;;;9.40;4.07;;;26.00;44.50;;;;;;5093760;28;20819;-67
2023/07/03 11:43:33;;;;;;;15.03;4.23;;;25.80;44.10;;;;;;5093493;28;20867;-67
2023/07/03 11:46:21;;;;;;;10.20;4.07;;;25.50;41.60;;;;;;5093812;28;20428;-67
2023/07/03 11:48:51;;;;;;;21.73;4.17;;;25.20;40.70;;;;;;5096310;28;20467;-66
2023/07/03 11:51:32;;;;;;;14.40;4.00;;;25.00;38.50;;;;;;5098055;28;20444;-67
2023/07/03 11:54:00;;;;;;;15.07;4.67;;;25.00;39.00;;;;;;5097859;28;20464;-67
2023/07/03 11:56:48;;;;;;;17.87;5.00;;;25.60;39.30;;;;;;5097307;28;20850;-67
2023/07/03 11:59:25;;;;;;;20.23;4.17;;;26.70;37.60;;;;;;5097535;28;20953;-67
2023/07/03 12:01:53;;;;;;;9.50;4.57;;;27.00;36.20;;;;;;5097562;28;20505;-67
2023/07/03 12:04:49;;;;;;;30.50;4.67;;;27.10;34.90;;;;;;5097479;28;20447;-67
2023/07/03 12:07:50;;;;;;;12.50;4.50;;;27.50;35.30;;;;;;5097359;28;20424;-67
2023/07/03 12:10:41;;;;;;;11.43;4.00;;;28.40;35.80;;;;;;5097196;28;20440;-67
2023/07/03 12:13:41;;;;;;;8.60;4.40;;;28.80;32.00;;;;;;5097214;28;20486;-67
2023/07/03 12:16:14;;;;;;;10.03;3.43;;;29.00;32.60;;;;;;5096777;28;20522;-67
2023/07/03 12:18:43;;;;;;;14.67;5.27;;;29.30;32.90;;;;;;5095745;28;20427;-68
2023/07/03 12:21:10;;;;;;;18.03;4.90;;;29.50;32.00;;;;;;5096952;28;20825;-67
2023/07/03 12:23:41;;;;;;;18.37;5.47;;;29.60;31.30;;;;;;5096725;28;20903;-67
2023/07/03 12:26:09;;;;;;;10.43;4.07;;;30.20;32.70;;;;;;5096791;28;20508;-67
2023/07/03 12:28:36;;;;;;;13.27;4.13;;;30.40;29.90;;;;;;5097142;28;20450;-68
2023/07/03 12:31:15;;;;;;;11.83;3.60;;;30.60;30.20;;;;;;5097113;28;20444;-67
2023/07/03 12:33:53;;;;;;;11.23;3.90;;;30.70;29.50;;;;;;5096729;28;20466;-67
2023/07/03 12:36:29;;;;;;;9.23;4.20;;;30.80;29.40;;;;;;5096697;28;20964;-67
2023/07/03 12:38:59;;;;;;;8.40;3.57;;;30.90;28.90;;;;;;5097661;28;20461;-67
2023/07/03 12:41:29;;;;;;;13.60;3.90;;;30.70;29.90;;;;;;5096420;28;20988;-67
2023/07/03 12:43:56;;;;;;;16.33;4.13;;;30.80;29.00;;;;;;5096658;28;20478;-67
2023/07/03 12:46:31;;;;;;;12.87;4.60;;;31.10;29.00;;;;;;5096432;28;20443;-67
2023/07/03 12:49:03;;;;;;;15.73;4.27;;;30.70;29.40;;;;;;5095303;28;20443;-67
2023/07/03 12:51:35;;;;;;;8.67;3.63;;;29.80;30.10;;;;;;5096423;28;20467;-67